Dakar, Senegal

2:28 AM GMT on October 23, 2014 (GMT +0000)
Ngor Almadies | Change Station
CLOSE
Current Station
Personal Weather Station
Location: Dakar, DAKAR
Elevation: 46 ft
Nearby Weather Stations

Elev 46 ft 14.74 °N, 17.51 °W | Updated 6 seconds ago

Scattered Clouds
Scattered Clouds
81.5 °F
Feels Like 90 °F
N
6.0
Wind Variable Wind from NW
Gusts 7.0 mph

Today
High -- | Low -- °F
--% Chance of Precip.
Yesterday
High -- | Low -- °F
Precip. -- in
7:02 AM 6:45 PM
Waning Crescent, 1% visible
Pressure 29.89 in
Visibility 6.2 miles
Clouds Scattered Clouds 800 ft
Heat Index 90 °F
Dew Point 78 °F
Humidity 89%
Rainfall 0.00 in
Snow Depth Not available.
UV 0 out of 12
Pollen Not available.
Air Quality Not available.
Flu Activity Not available.
METAR GOOY 230200Z 30003KT 9999 SCT008 27/25 Q1012 NOSIG

More Conditions Fewer Conditions

Pressure 29.89 in
Visibility 6.2 miles
Clouds Scattered Clouds 800 ft
Heat Index 90 °F
Dew Point 78 °F
Humidity 89%
Rainfall 0.00 in
Snow Depth Not available.
UV 0 out of 12
Pollen Not available.
Air Quality Not available.
Flu Activity Not available.
METAR GOOY 230200Z 30003KT 9999 SCT008 27/25 Q1012 NOSIG

More Conditions Fewer Conditions

10-Day Weather Forecast

Almanac

Astronomy

Oct. 23, 2014 Rise Set
Actual Time 7:02 AM GMT 6:45 PM GMT
Civil Twilight 6:41 AM GMT 7:07 PM GMT
Nautical Twilight 6:16 AM GMT 7:32 PM GMT
Astronomical Twilight 5:50 AM GMT 7:57 PM GMT
Moon 6:36 AM GMT 6:38 PM GMT
Length of Visible Light 12h 26m
Length of Day
11h 42m
Tomorrow will be 0m 44s shorter.
Waning Crescent, 1% of the Moon is Illuminated
Oct 22
Waning Crescent
Oct 23
New
Oct 30
First Quarter
Nov 6
Full
Nov 14
Last Quarter

Yesterday's Extremes

Country Highs Country Lows

Community

WunderPhotos

Upload Photos

1,764,109 photos uploaded!

Nearby

Snow Depth

Not available.

Earthquake Activity

City Distance Mag. Time & Date
No recent earthquake activity has been reported nearby.
Minimum magnitude displayed is 2.5.

Coastal Water Temperatures

Place Temperature
No Stations Reporting

Nearby Weather Stations